Time;durP1;ratioP1;P1;durP2;ratioP2;P2;SDS_P1;SDS_P2;PMS_P1;PMS_P2;Temp;Humidity;BMP_temperature;BMP_pressure;BME280_temperature;BME280_humidity;BME280_pressure;Samples;Min_cycle;Max_cycle;Signal;HPM_P1;HPM_P2
2023/04/14 00:01:23;;;;;;;9.40;2.13;;;2.00;1.00;2.70;93251.00;;;;7400357;19;20475;-73
2023/04/14 00:03:57;;;;;;;7.70;2.03;;;2.10;1.00;2.80;93216.00;;;;7401326;19;20133;-74
2023/04/14 00:06:25;;;;;;;8.13;2.20;;;2.10;99.90;2.70;93243.00;;;;7398529;19;20219;-73
2023/04/14 00:09:05;;;;;;;7.40;2.37;;;2.20;99.90;2.90;93173.00;;;;7399018;19;20164;-75
2023/04/14 00:11:32;;;;;;;7.60;2.50;;;2.30;99.90;2.90;93245.00;;;;7400573;19;20129;-74
2023/04/14 00:14:06;;;;;;;11.57;2.53;;;2.30;99.90;2.70;93247.00;;;;7400233;19;20157;-74
2023/04/14 00:16:41;;;;;;;12.13;2.93;;;2.30;99.90;2.80;93164.00;;;;7399074;19;20153;-75
2023/04/14 00:19:15;;;;;;;9.90;2.50;;;2.20;99.90;2.70;93214.00;;;;7394668;19;20147;-74
2023/04/14 00:21:49;;;;;;;6.70;2.00;;;2.10;99.90;2.70;93231.00;;;;7399498;19;20133;-74
2023/04/14 00:24:16;;;;;;;6.33;2.03;;;2.20;99.90;2.70;93227.00;;;;7401282;19;20121;-74
2023/04/14 00:26:50;;;;;;;7.03;2.50;;;2.10;99.90;2.60;93218.00;;;;7399772;19;20151;-74
2023/04/14 00:29:17;;;;;;;10.67;2.47;;;2.00;99.90;2.50;93196.00;;;;7400367;19;20232;-73
2023/04/14 00:31:50;;;;;;;5.73;2.00;;;2.00;99.90;2.40;93203.00;;;;7397907;19;20157;-75
2023/04/14 00:34:24;;;;;;;13.50;2.40;;;1.90;99.90;2.40;93168.00;;;;7382060;19;20216;-74
2023/04/14 00:36:58;;;;;;;14.43;2.67;;;1.90;99.90;2.30;93230.00;;;;7394421;19;20184;-74
2023/04/14 00:39:26;;;;;;;7.50;2.33;;;1.80;99.90;2.20;93174.00;;;;7399923;19;20137;-74
2023/04/14 00:42:03;;;;;;;7.90;2.07;;;1.70;99.90;1.90;93206.00;;;;7399726;19;20141;-73
2023/04/14 00:44:37;;;;;;;10.97;2.60;;;1.70;1.00;2.00;93212.00;;;;7397066;19;20144;-75
2023/04/14 00:47:04;;;;;;;11.77;2.40;;;1.60;1.00;2.00;93236.00;;;;7397747;19;20145;-76
2023/04/14 00:49:38;;;;;;;8.27;2.33;;;1.60;1.00;2.00;93234.00;;;;7398522;19;20149;-74
2023/04/14 00:52:05;;;;;;;13.53;2.30;;;1.50;1.00;2.10;93216.00;;;;7397521;19;20149;-75
2023/04/14 00:54:39;;;;;;;9.73;2.43;;;1.50;1.00;2.00;93234.00;;;;7397758;19;20144;-74
2023/04/14 00:57:13;;;;;;;6.50;2.23;;;1.50;1.00;2.00;93209.00;;;;7397609;19;20153;-74
2023/04/14 00:59:47;;;;;;;9.37;2.57;;;1.50;1.00;2.00;93233.00;;;;7398938;19;20184;-74
2023/04/14 01:02:21;;;;;;;12.57;2.60;;;1.40;1.00;1.80;93244.00;;;;7396722;19;20185;-75
2023/04/14 01:04:49;;;;;;;13.13;2.53;;;1.40;1.00;1.90;93195.00;;;;7396773;19;20163;-76
2023/04/14 01:07:32;;;;;;;12.70;2.57;;;1.30;1.00;1.90;93244.00;;;;7399087;19;20575;-75
2023/04/14 01:10:08;;;;;;;8.60;2.40;;;1.30;1.00;1.80;93234.00;;;;7398310;19;20153;-75
2023/04/14 01:13:10;;;;;;;11.37;2.73;;;1.20;1.00;1.70;93248.00;;;;7396474;19;20159;-75
2023/04/14 01:16:02;;;;;;;15.23;2.50;;;1.10;1.00;1.70;93238.00;;;;7396377;19;20136;-76
2023/04/14 01:18:44;;;;;;;6.93;2.20;;;1.10;70.90;1.80;93251.00;;;;7395379;19;20604;-75
2023/04/14 01:21:22;;;;;;;7.37;2.30;;;1.20;88.70;1.70;93265.00;;;;7399122;19;20132;-75
2023/04/14 01:24:23;;;;;;;15.97;3.07;;;1.10;13.70;1.40;93253.00;;;;7393298;19;21185;-75
2023/04/14 01:27:29;;;;;;;7.80;2.23;;;1.10;15.00;1.40;93256.00;;;;7397263;19;20156;-76
2023/04/14 01:30:39;;;;;;;8.13;2.50;;;1.00;99.90;1.70;93262.00;;;;7395407;19;20472;-76
2023/04/14 01:33:21;;;;;;;5.97;1.87;;;1.00;99.90;1.80;93258.00;;;;7396125;19;20619;-74
2023/04/14 01:35:57;;;;;;;12.30;2.57;;;1.10;99.90;1.90;93268.00;;;;7397755;19;20136;-75
2023/04/14 01:38:34;;;;;;;7.43;2.43;;;1.20;99.90;1.90;93271.00;;;;7393716;19;20200;-76
2023/04/14 01:41:13;;;;;;;6.03;2.47;;;1.20;1.00;1.90;93277.00;;;;7397839;19;20141;-77
2023/04/14 01:43:54;;;;;;;9.07;3.07;;;1.20;1.00;1.90;93259.00;;;;7396194;19;20484;-77
2023/04/14 01:46:28;;;;;;;13.43;3.50;;;1.30;1.00;1.90;93255.00;;;;7405347;19;20128;-74
2023/04/14 01:48:55;;;;;;;14.97;2.50;;;1.30;1.00;1.80;93232.00;;;;7403293;19;20916;-76
2023/04/14 01:51:32;;;;;;;7.17;2.50;;;1.20;1.00;1.70;93245.00;;;;7404524;19;20195;-75
2023/04/14 01:54:03;;;;;;;8.27;2.07;;;1.10;1.00;1.50;93266.00;;;;7403488;19;20197;-74
2023/04/14 01:56:39;;;;;;;7.70;2.00;;;1.00;1.00;1.30;93270.00;;;;7403043;19;20128;-76
2023/04/14 01:59:10;;;;;;;15.93;2.83;;;0.90;1.00;1.20;93265.00;;;;7400054;19;20604;-75
2023/04/14 02:01:47;;;;;;;10.70;2.80;;;0.90;99.90;1.30;93264.00;;;;7402958;19;20216;-75
2023/04/14 02:04:25;;;;;;;5.97;1.93;;;0.90;99.90;1.40;93273.00;;;;7402095;19;20140;-76
2023/04/14 02:07:03;;;;;;;4.17;1.90;;;0.90;99.90;1.30;93267.00;;;;7401809;19;20164;-76
2023/04/14 02:09:39;;;;;;;4.30;1.80;;;0.80;99.90;1.10;93260.00;;;;7400560;19;20502;-76
2023/04/14 02:12:13;;;;;;;14.57;2.30;;;0.80;99.90;0.90;93283.00;;;;7403276;19;20476;-75
2023/04/14 02:14:42;;;;;;;9.80;2.37;;;0.70;99.90;0.90;93216.00;;;;7402121;19;20167;-75
2023/04/14 02:17:20;;;;;;;8.23;2.30;;;0.60;1.00;1.00;93245.00;;;;7403571;19;20132;-76
2023/04/14 02:19:55;;;;;;;7.63;1.83;;;0.60;1.00;1.30;93277.00;;;;7401757;19;20584;-76
2023/04/14 02:22:31;;;;;;;7.90;2.40;;;0.70;1.00;1.30;93263.00;;;;7402669;19;20136;-75
2023/04/14 02:24:59;;;;;;;4.63;1.73;;;0.70;1.00;1.40;93253.00;;;;7404048;19;20121;-75
2023/04/14 02:27:37;;;;;;;7.00;3.03;;;0.80;1.00;1.40;93256.00;;;;7400441;19;20550;-75
2023/04/14 02:30:18;;;;;;;11.60;2.70;;;0.80;1.00;1.60;93283.00;;;;7402457;19;20147;-76
2023/04/14 02:32:55;;;;;;;4.93;1.73;;;0.90;1.00;1.50;93284.00;;;;7401889;19;20166;-75
2023/04/14 02:35:41;;;;;;;11.03;2.37;;;0.90;99.90;1.50;93220.00;;;;7401548;19;20125;-75
2023/04/14 02:38:27;;;;;;;7.30;2.20;;;0.80;99.90;1.20;93237.00;;;;7401449;19;20574;-76
2023/04/14 02:41:13;;;;;;;6.90;2.00;;;0.80;99.90;1.30;93278.00;;;;7402552;19;20145;-75
2023/04/14 02:43:59;;;;;;;8.50;2.20;;;0.80;99.90;1.20;93275.00;;;;7403676;19;20136;-75
2023/04/14 02:46:33;;;;;;;15.87;2.10;;;0.70;99.90;1.20;93278.00;;;;7401441;19;20121;-75
2023/04/14 02:49:13;;;;;;;15.67;2.40;;;0.60;99.90;1.40;93236.00;;;;7401217;19;20794;-75
2023/04/14 02:51:44;;;;;;;7.83;2.00;;;0.70;99.90;1.60;93261.00;;;;7401753;19;20155;-74
2023/04/14 02:54:20;;;;;;;19.43;3.07;;;0.80;99.90;1.80;93229.00;;;;7402683;19;20165;-76
2023/04/14 02:56:56;;;;;;;9.37;1.83;;;0.90;99.90;1.80;93259.00;;;;7400792;19;20590;-75
2023/04/14 02:59:31;;;;;;;11.63;2.30;;;1.00;1.00;1.50;93279.00;;;;7402842;19;20139;-76
2023/04/14 03:02:08;;;;;;;10.93;2.17;;;0.90;1.00;1.70;93233.00;;;;7402025;19;20156;-75
2023/04/14 03:04:43;;;;;;;7.13;2.50;;;0.90;1.00;1.60;93240.00;;;;7400865;19;20149;-74
2023/04/14 03:07:20;;;;;;;5.00;2.00;;;0.90;1.00;1.80;93281.00;;;;7403028;19;20128;-76
2023/04/14 03:10:01;;;;;;;6.10;1.67;;;1.00;1.00;1.80;93233.00;;;;7401154;19;20153;-76
2023/04/14 03:12:36;;;;;;;10.40;2.47;;;1.00;1.00;1.90;93227.00;;;;7402456;19;20140;-76
2023/04/14 03:15:06;;;;;;;12.23;2.63;;;1.10;99.90;1.80;93271.00;;;;7400907;19;20165;-76
2023/04/14 03:17:42;;;;;;;6.40;1.80;;;1.10;99.90;1.70;93262.00;;;;7401970;19;20606;-75
2023/04/14 03:20:11;;;;;;;8.50;2.20;;;1.10;99.90;1.90;93224.00;;;;7403620;19;20153;-74
2023/04/14 03:22:47;;;;;;;8.07;1.70;;;1.10;99.90;1.90;93274.00;;;;7399291;19;20145;-75
2023/04/14 03:25:14;;;;;;;10.57;2.33;;;1.20;99.90;1.90;93210.00;;;;7401495;19;20184;-75
2023/04/14 03:27:45;;;;;;;4.00;1.90;;;1.20;99.90;1.80;93281.00;;;;7399932;19;20125;-77
2023/04/14 03:30:24;;;;;;;8.77;2.10;;;1.20;99.90;1.70;93228.00;;;;7400758;19;20611;-76
2023/04/14 03:32:54;;;;;;;6.90;1.87;;;1.20;99.90;1.90;93257.00;;;;7400550;19;20492;-75
2023/04/14 03:35:29;;;;;;;9.17;2.27;;;1.30;90.20;1.90;93248.00;;;;7399858;19;20519;-74
2023/04/14 03:38:07;;;;;;;7.03;1.63;;;1.30;61.40;2.00;93270.00;;;;7401564;19;20140;-75
2023/04/14 03:40:46;;;;;;;6.47;2.10;;;1.30;81.10;1.80;93244.00;;;;7398235;19;20152;-75
2023/04/14 03:43:18;;;;;;;7.80;1.93;;;1.30;53.30;1.70;93248.00;;;;7402082;19;20161;-75
2023/04/14 03:45:52;;;;;;;4.57;1.70;;;1.30;74.50;1.60;93231.00;;;;7401076;19;20181;-75
2023/04/14 03:48:28;;;;;;;9.63;1.87;;;1.20;99.90;1.60;93272.00;;;;7402265;19;20125;-75
2023/04/14 03:51:07;;;;;;;8.20;1.67;;;1.20;99.90;1.40;93263.00;;;;7399819;19;20161;-75
2023/04/14 03:53:40;;;;;;;7.90;2.07;;;1.10;99.90;1.30;93265.00;;;;7402161;19;20137;-74
2023/04/14 03:56:16;;;;;;;5.50;2.00;;;1.00;99.90;1.20;93275.00;;;;7400094;19;20125;-75
2023/04/14 03:58:54;;;;;;;7.83;2.20;;;0.90;99.90;1.40;93232.00;;;;7399096;19;20515;-76
2023/04/14 04:01:24;;;;;;;9.53;1.87;;;0.90;99.90;1.40;93269.00;;;;7401749;19;20523;-75
2023/04/14 04:04:01;;;;;;;8.37;1.87;;;0.90;1.00;1.50;93211.00;;;;7401014;19;20591;-75
2023/04/14 04:06:29;;;;;;;9.57;1.93;;;1.00;99.90;1.50;93257.00;;;;7400611;19;20140;-73
2023/04/14 04:09:13;;;;;;;7.03;1.80;;;1.00;99.90;1.50;93239.00;;;;7400444;19;20144;-75
2023/04/14 04:11:49;;;;;;;4.27;1.83;;;1.00;99.90;1.40;93262.00;;;;7400653;19;20157;-75
2023/04/14 04:14:20;;;;;;;12.23;2.37;;;1.00;99.90;1.40;93221.00;;;;7400736;19;20141;-75
2023/04/14 04:16:56;;;;;;;10.93;2.13;;;1.00;99.90;1.30;93265.00;;;;7400009;19;20136;-75
2023/04/14 04:19:25;;;;;;;5.17;1.70;;;0.90;99.90;1.20;93256.00;;;;7398314;19;20169;-75
2023/04/14 04:22:01;;;;;;;7.10;1.80;;;0.90;1.00;1.20;93219.00;;;;7399889;19;20152;-75
2023/04/14 04:24:39;;;;;;;9.60;2.10;;;0.80;1.00;1.20;93238.00;;;;7391516;19;20179;-75
2023/04/14 04:27:15;;;;;;;7.00;1.70;;;0.80;1.00;1.30;93275.00;;;;7387641;19;20140;-75
2023/04/14 04:29:55;;;;;;;3.43;1.57;;;0.90;1.00;1.30;93275.00;;;;7393667;19;20147;-74
2023/04/14 04:32:29;;;;;;;10.47;2.03;;;0.90;1.00;1.30;93257.00;;;;7393894;19;20617;-74
2023/04/14 04:35:06;;;;;;;8.83;1.80;;;0.90;99.90;1.30;93255.00;;;;7394991;19;20621;-74
2023/04/14 04:37:42;;;;;;;6.50;1.73;;;0.90;99.90;1.20;93272.00;;;;7393558;19;20481;-74
2023/04/14 04:40:16;;;;;;;11.07;1.90;;;0.90;99.90;1.20;93256.00;;;;7395649;19;20136;-73
2023/04/14 04:42:50;;;;;;;6.13;1.70;;;0.90;99.90;1.20;93282.00;;;;7395165;19;20137;-74
2023/04/14 04:46:12;;;;;;;7.03;1.90;;;0.90;99.90;1.20;93275.00;;;;7393600;19;20165;-75
2023/04/14 04:48:54;;;;;;;11.43;2.27;;;0.90;99.90;1.20;93288.00;;;;7392438;19;20196;-74
2023/04/14 04:51:28;;;;;;;12.63;2.23;;;0.80;99.90;1.20;93285.00;;;;7395717;19;20141;-74
2023/04/14 04:54:02;;;;;;;5.53;1.50;;;0.80;99.90;1.20;93274.00;;;;7396261;19;20137;-74
2023/04/14 04:56:36;;;;;;;10.90;2.00;;;0.80;99.90;1.30;93281.00;;;;7392539;19;20141;-75
2023/04/14 04:59:10;;;;;;;6.17;1.60;;;0.80;99.90;1.40;93273.00;;;;7394470;19;20526;-74
2023/04/14 05:01:38;;;;;;;8.30;1.50;;;0.80;99.90;1.20;93288.00;;;;7392488;19;20121;-74
2023/04/14 05:04:12;;;;;;;6.43;1.60;;;0.90;99.90;1.50;93263.00;;;;7392372;19;20128;-75
2023/04/14 05:06:40;;;;;;;4.13;1.60;;;0.90;99.90;1.50;93238.00;;;;7398324;19;20196;-74
2023/04/14 05:09:26;;;;;;;3.37;1.70;;;1.00;99.90;1.40;93267.00;;;;7396760;19;20160;-75
2023/04/14 05:12:05;;;;;;;7.40;2.17;;;1.00;99.90;1.60;93238.00;;;;7396445;19;20588;-75
2023/04/14 05:14:39;;;;;;;3.53;1.60;;;1.10;99.90;1.70;93231.00;;;;7397991;19;20461;-75
2023/04/14 05:17:06;;;;;;;4.97;1.50;;;1.20;38.40;1.80;93293.00;;;;7398817;19;20148;-74
2023/04/14 05:19:40;;;;;;;9.30;1.97;;;1.30;1.00;2.00;93271.00;;;;7393168;19;20133;-73
2023/04/14 05:22:08;;;;;;;5.90;1.50;;;1.40;1.00;2.00;93282.00;;;;7392730;19;20136;-74
2023/04/14 05:24:50;;;;;;;6.60;1.37;;;1.50;1.00;2.10;93300.00;;;;7398355;19;20212;-74
2023/04/14 05:27:24;;;;;;;6.37;1.50;;;1.50;1.00;2.20;93277.00;;;;7398112;19;20204;-74
2023/04/14 05:29:58;;;;;;;6.90;1.60;;;1.60;1.00;2.40;93257.00;;;;7399602;19;20132;-74
2023/04/14 05:32:27;;;;;;;5.90;1.77;;;1.70;1.00;2.50;93272.00;;;;7398504;19;20510;-75
2023/04/14 05:35:01;;;;;;;8.03;1.80;;;1.80;99.90;2.50;93254.00;;;;7399357;19;20620;-76
2023/04/14 05:37:35;;;;;;;5.20;1.57;;;1.90;99.90;2.70;93258.00;;;;7395870;19;20687;-76
2023/04/14 05:40:03;;;;;;;4.63;1.60;;;2.10;99.90;2.70;93262.00;;;;7393750;19;20145;-74
2023/04/14 05:42:39;;;;;;;3.70;1.47;;;2.10;99.90;2.90;93285.00;;;;7399043;19;20133;-75
2023/04/14 05:45:08;;;;;;;4.93;1.73;;;2.20;99.90;2.90;93260.00;;;;7396584;19;20145;-75
2023/04/14 05:47:43;;;;;;;10.73;1.73;;;2.30;99.90;3.20;93258.00;;;;7397359;19;20619;-75
2023/04/14 05:50:14;;;;;;;6.23;1.60;;;2.40;1.00;3.20;93301.00;;;;7399168;19;20129;-74
2023/04/14 05:52:49;;;;;;;4.70;1.47;;;2.50;1.00;3.30;93284.00;;;;7396961;19;20641;-75
2023/04/14 05:55:18;;;;;;;6.87;1.87;;;2.60;1.00;3.40;93306.00;;;;7396898;19;20145;-75
2023/04/14 05:57:52;;;;;;;5.03;1.47;;;2.80;1.00;3.50;93284.00;;;;7398921;19;20135;-75
2023/04/14 06:00:26;;;;;;;5.40;1.40;;;2.80;1.00;3.50;93273.00;;;;7380409;19;20144;-76
2023/04/14 06:02:54;;;;;;;6.37;1.60;;;3.00;99.90;3.80;93282.00;;;;7369252;19;20196;-75
2023/04/14 06:05:30;;;;;;;8.23;1.50;;;3.10;99.90;3.90;93259.00;;;;7382305;19;20520;-74
2023/04/14 06:08:08;;;;;;;5.13;1.30;;;3.10;99.90;3.80;93281.00;;;;7380001;19;20159;-74
2023/04/14 06:10:50;;;;;;;5.87;1.47;;;3.30;99.90;4.10;93312.00;;;;7379212;19;20134;-75
2023/04/14 06:13:25;;;;;;;8.40;1.60;;;3.40;99.90;4.20;93300.00;;;;7380531;19;20181;-74
2023/04/14 06:16:02;;;;;;;3.77;1.60;;;3.50;99.90;4.40;93294.00;;;;7382291;19;20168;-74
2023/04/14 06:18:36;;;;;;;7.37;1.50;;;3.60;99.90;4.60;93306.00;;;;7379451;19;20164;-74
2023/04/14 06:21:11;;;;;;;5.77;1.43;;;3.80;49.00;4.90;93295.00;;;;7381516;19;20613;-74
2023/04/14 06:23:38;;;;;;;3.20;1.50;;;4.00;1.00;5.60;93306.00;;;;7381225;19;20129;-74
2023/04/14 06:26:12;;;;;;;4.70;1.57;;;4.00;1.00;5.80;93289.00;;;;7379130;19;20204;-73
2023/04/14 06:28:42;;;;;;;5.83;1.70;;;4.20;26.60;5.50;93282.00;;;;7376756;19;20153;-73
2023/04/14 06:31:17;;;;;;;3.90;1.50;;;4.30;1.00;5.70;93302.00;;;;7381162;19;20140;-73
2023/04/14 06:33:51;;;;;;;6.93;1.90;;;4.50;1.00;6.40;93305.00;;;;7381230;19;20196;-73
2023/04/14 06:36:19;;;;;;;4.27;1.40;;;4.60;1.00;6.60;93296.00;;;;7386458;19;20133;-74
2023/04/14 06:38:56;;;;;;;6.03;1.30;;;4.90;1.00;6.90;93293.00;;;;7388646;19;20196;-74
2023/04/14 06:41:30;;;;;;;4.80;1.60;;;5.00;1.00;6.90;93259.00;;;;7385616;19;20148;-73
2023/04/14 06:44:04;;;;;;;3.37;1.30;;;5.10;99.90;6.50;93308.00;;;;7388106;19;20217;-73
2023/04/14 06:46:34;;;;;;;5.20;1.50;;;5.30;99.90;6.40;93293.00;;;;7385323;19;20193;-73
2023/04/14 06:49:08;;;;;;;5.27;1.70;;;5.40;99.90;6.80;93280.00;;;;7384282;19;20164;-73
2023/04/14 06:51:42;;;;;;;6.50;1.50;;;5.50;99.90;7.40;93286.00;;;;7385846;19;20504;-73
2023/04/14 06:54:16;;;;;;;4.07;1.43;;;5.50;99.90;6.80;93295.00;;;;7385245;19;20149;-73
2023/04/14 06:56:50;;;;;;;6.73;1.73;;;5.70;99.90;7.20;93299.00;;;;7385831;19;20151;-73
2023/04/14 06:59:28;;;;;;;4.87;1.90;;;5.70;99.90;7.00;93292.00;;;;7386472;19;20140;-73
2023/04/14 07:02:02;;;;;;;7.07;1.57;;;5.90;99.90;7.20;93287.00;;;;7385707;19;20144;-75
2023/04/14 07:04:36;;;;;;;5.10;1.33;;;6.00;99.90;7.40;93253.00;;;;7384554;19;20248;-74
2023/04/14 07:07:13;;;;;;;6.87;1.20;;;6.00;99.90;7.70;93302.00;;;;7385915;19;20148;-73
2023/04/14 07:09:54;;;;;;;5.87;1.47;;;6.20;99.90;8.30;93243.00;;;;7385633;19;20166;-73
2023/04/14 07:12:21;;;;;;;7.33;1.50;;;6.30;99.90;8.40;93285.00;;;;7385632;19;20143;-73
2023/04/14 07:14:55;;;;;;;4.50;1.67;;;6.30;99.90;7.40;93281.00;;;;7384183;19;20604;-73
2023/04/14 07:17:23;;;;;;;5.33;1.40;;;6.60;99.50;7.60;93281.00;;;;7385094;19;20157;-72
2023/04/14 07:19:57;;;;;;;3.00;1.10;;;6.80;54.00;8.20;93276.00;;;;7385291;19;20211;-72
2023/04/14 07:22:32;;;;;;;3.97;1.63;;;6.80;37.50;8.10;93290.00;;;;7384792;19;20522;-73
2023/04/14 07:24:59;;;;;;;3.73;1.40;;;7.00;24.90;8.60;93280.00;;;;7384055;19;20588;-73
2023/04/14 07:27:33;;;;;;;4.23;1.33;;;7.20;34.80;8.70;93268.00;;;;7383852;19;20136;-72
2023/04/14 07:30:01;;;;;;;2.90;1.33;;;7.40;11.30;8.60;93281.00;;;;7384356;19;20129;-73
2023/04/14 07:32:35;;;;;;;4.40;1.53;;;7.30;1.00;8.00;93278.00;;;;7384886;19;20132;-74
2023/04/14 07:35:03;;;;;;;7.17;1.30;;;7.30;1.00;8.60;93268.00;;;;7383941;19;20163;-78
2023/04/14 07:37:37;;;;;;;4.20;1.35;;;7.50;1.00;8.40;93272.00;;;;7384138;19;20140;-73
2023/04/14 07:40:11;;;;;;;5.05;1.48;;;7.60;1.00;9.00;93276.00;;;;7377231;19;20148;-73
2023/04/14 07:42:46;;;;;;;2.72;1.40;;;7.70;1.00;9.40;93280.00;;;;7380465;19;20607;-74
2023/04/14 07:45:14;;;;;;;3.63;1.50;;;7.80;1.00;9.10;93250.00;;;;7383859;19;20149;-73
2023/04/14 07:47:54;;;;;;;3.83;1.52;;;8.00;1.00;9.50;93261.00;;;;7383526;19;21079;-73
2023/04/14 07:50:24;;;;;;;5.03;1.35;;;8.30;1.00;10.20;93263.00;;;;7381656;19;20144;-73
2023/04/14 07:52:58;;;;;;;4.65;1.58;;;8.50;1.00;9.40;93264.00;;;;7384012;19;20138;-74
2023/04/14 07:55:26;;;;;;;5.78;1.30;;;8.60;1.00;9.60;93258.00;;;;7383855;19;20177;-72
2023/04/14 07:58:00;;;;;;;6.85;1.65;;;8.70;1.00;8.90;93247.00;;;;7384254;19;20165;-73
2023/04/14 08:00:34;;;;;;;3.60;1.27;;;8.70;1.00;9.40;93268.00;;;;7384363;19;20140;-74
2023/04/14 08:03:02;;;;;;;5.88;1.40;;;8.70;1.00;9.80;93269.00;;;;7382095;19;20486;-71
2023/04/14 08:05:36;;;;;;;4.90;1.58;;;8.90;1.00;9.90;93265.00;;;;7384256;19;20155;-73
2023/04/14 08:08:04;;;;;;;5.38;1.70;;;8.90;1.00;9.30;93258.00;;;;7382246;19;20144;-76
2023/04/14 08:10:46;;;;;;;6.72;1.80;;;8.90;1.00;9.50;93249.00;;;;7382654;19;20169;-72
2023/04/14 08:13:21;;;;;;;5.60;1.52;;;8.80;1.00;10.30;93255.00;;;;7383573;19;20568;-72
2023/04/14 08:15:49;;;;;;;4.53;1.45;;;8.90;1.00;10.80;93237.00;;;;7382680;19;20140;-72
2023/04/14 08:18:23;;;;;;;5.32;1.30;;;9.10;1.00;11.00;93254.00;;;;7385361;19;20135;-74
2023/04/14 08:20:51;;;;;;;3.78;1.40;;;9.00;1.00;11.00;93263.00;;;;7381821;19;20144;-73
2023/04/14 08:23:26;;;;;;;2.42;1.33;;;9.20;1.00;11.40;93244.00;;;;7382992;19;20153;-72
2023/04/14 08:25:54;;;;;;;8.10;1.55;;;9.20;1.00;11.00;93259.00;;;;7382555;19;20157;-72
2023/04/14 08:28:28;;;;;;;4.45;1.60;;;9.00;1.00;10.30;93264.00;;;;7381745;19;20163;-72
2023/04/14 08:30:56;;;;;;;2.47;1.17;;;9.20;1.00;10.50;93274.00;;;;7380206;19;20152;-73
2023/04/14 08:33:30;;;;;;;5.75;1.70;;;9.30;1.00;9.90;93242.00;;;;7379317;19;20128;-71
2023/04/14 08:35:58;;;;;;;5.32;1.42;;;9.50;1.00;10.60;93251.00;;;;7381509;19;20129;-71
2023/04/14 08:38:32;;;;;;;3.47;1.50;;;9.50;1.00;12.40;93265.00;;;;7381203;19;20650;-74
2023/04/14 08:41:06;;;;;;;4.50;1.40;;;9.70;1.00;11.30;93260.00;;;;7382631;19;20137;-73
2023/04/14 08:43:40;;;;;;;3.20;1.30;;;9.90;1.00;10.70;93263.00;;;;7380034;19;20140;-72
2023/04/14 08:46:10;;;;;;;6.80;1.60;;;10.10;1.00;10.30;93275.00;;;;7382394;19;20181;-72
2023/04/14 08:48:39;;;;;;;2.97;1.27;;;10.20;1.00;12.00;93269.00;;;;7380064;19;20149;-72
2023/04/14 08:51:40;;;;;;;4.78;1.52;;;10.40;1.00;12.20;93272.00;;;;7382462;19;20145;-72
2023/04/14 08:54:15;;;;;;;4.13;1.20;;;10.90;1.00;13.00;93235.00;;;;7381519;19;20166;-72
2023/04/14 08:56:50;;;;;;;3.15;1.25;;;11.30;1.00;13.80;93234.00;;;;7379569;19;20148;-72
2023/04/14 08:59:26;;;;;;;6.22;1.67;;;11.40;1.00;13.50;93266.00;;;;7381915;19;20148;-72
2023/04/14 09:01:55;;;;;;;2.97;1.25;;;11.40;1.00;14.30;93228.00;;;;7381127;19;20608;-72
2023/04/14 09:04:30;;;;;;;5.07;1.60;;;11.40;1.00;12.10;93255.00;;;;7380237;19;20152;-72
2023/04/14 09:07:04;;;;;;;3.83;1.70;;;11.50;1.00;11.80;93265.00;;;;7381207;19;20556;-73
2023/04/14 09:09:39;;;;;;;4.75;1.40;;;11.40;1.00;13.10;93265.00;;;;7380130;19;20163;-71
2023/04/14 09:12:22;;;;;;;3.88;1.38;;;11.40;1.00;12.20;93265.00;;;;7380505;19;20152;-73
2023/04/14 09:14:51;;;;;;;4.70;1.83;;;11.30;1.00;12.20;93257.00;;;;7380771;19;20152;-73
2023/04/14 09:17:27;;;;;;;4.03;1.55;;;11.40;1.00;13.40;93247.00;;;;7380923;19;20152;-72
2023/04/14 09:19:56;;;;;;;5.05;1.42;;;11.70;1.00;13.90;93238.00;;;;7382288;19;20152;-76
2023/04/14 09:22:52;;;;;;;4.88;1.80;;;11.60;1.00;12.70;93267.00;;;;7380567;19;20177;-73
2023/04/14 09:25:26;;;;;;;3.38;1.30;;;11.80;1.00;12.10;93262.00;;;;7382387;19;20129;-74
2023/04/14 09:28:00;;;;;;;4.88;1.88;;;11.40;1.00;10.60;93232.00;;;;7384058;19;20156;-73
2023/04/14 09:30:28;;;;;;;6.70;2.05;;;11.00;1.00;10.10;93276.00;;;;7379508;19;20156;-73
2023/04/14 09:33:06;;;;;;;5.55;2.25;;;10.10;1.00;9.90;93229.00;;;;7382121;19;20227;-72
2023/04/14 09:35:47;;;;;;;5.25;1.60;;;9.60;1.00;11.10;93254.00;;;;7379862;19;20140;-73
2023/04/14 09:38:37;;;;;;;3.58;1.48;;;9.60;1.00;12.80;93256.00;;;;7378223;19;20136;-76
2023/04/14 09:41:05;;;;;;;4.20;1.58;;;10.40;1.00;12.50;93204.00;;;;7379227;19;20128;-73
2023/04/14 09:43:39;;;;;;;3.05;1.50;;;11.40;1.00;13.40;93220.00;;;;7378135;19;20148;-75
2023/04/14 09:46:09;;;;;;;3.83;1.80;;;11.80;1.00;13.20;93245.00;;;;7377758;19;20571;-76
2023/04/14 09:48:55;;;;;;;4.22;1.30;;;12.00;1.00;13.20;93217.00;;;;7379187;19;20149;-76
2023/04/14 09:51:31;;;;;;;3.80;1.40;;;12.50;1.00;14.40;93246.00;;;;7380407;19;20129;-76
2023/04/14 09:54:05;;;;;;;3.58;1.48;;;13.20;1.00;14.80;93247.00;;;;7380432;19;20156;-77
2023/04/14 09:56:33;;;;;;;7.30;1.50;;;13.80;1.00;15.90;93242.00;;;;7382809;19;20133;-77
2023/04/14 09:59:09;;;;;;;2.95;1.50;;;14.20;1.00;16.30;93220.00;;;;7380862;19;20132;-78
2023/04/14 10:01:45;;;;;;;4.22;1.45;;;14.50;1.00;17.10;93218.00;;;;7380758;19;20137;-77
2023/04/14 10:04:25;;;;;;;3.45;1.23;;;15.20;1.00;17.60;93247.00;;;;7382063;19;20849;-77
2023/04/14 10:07:00;;;;;;;4.80;1.90;;;15.90;1.00;17.60;93223.00;;;;7383732;19;20679;-76
2023/04/14 10:09:37;;;;;;;3.33;1.45;;;16.40;1.00;17.30;93275.00;;;;7390159;19;20562;-75
2023/04/14 10:12:18;;;;;;;4.13;1.70;;;16.20;1.00;16.60;93228.00;;;;7389796;19;20145;-76
2023/04/14 10:14:45;;;;;;;4.38;1.42;;;16.00;1.00;15.80;93240.00;;;;7389975;19;20156;-76
2023/04/14 10:17:20;;;;;;;3.33;1.42;;;16.00;1.00;15.70;93281.00;;;;7390942;19;20137;-74
2023/04/14 10:19:48;;;;;;;3.75;1.30;;;15.60;1.00;12.70;93287.00;;;;7389947;19;20517;-74
2023/04/14 10:22:26;;;;;;;3.25;1.60;;;14.60;1.00;11.70;93287.00;;;;7387747;19;20132;-74
2023/04/14 10:25:00;;;;;;;3.45;1.38;;;13.50;1.00;11.00;93274.00;;;;7387073;19;20141;-73
2023/04/14 10:27:35;;;;;;;3.47;1.50;;;12.70;1.00;11.60;93279.00;;;;7388116;19;20148;-75
2023/04/14 10:30:05;;;;;;;4.05;1.65;;;12.00;1.00;11.80;93244.00;;;;7387243;19;20144;-74
2023/04/14 10:32:41;;;;;;;3.83;1.60;;;11.70;1.00;12.10;93259.00;;;;7383711;19;20152;-74
2023/04/14 10:35:18;;;;;;;3.42;1.30;;;11.70;1.00;14.40;93226.00;;;;7387591;19;20220;-75
2023/04/14 10:37:50;;;;;;;3.33;1.50;;;12.20;1.00;15.30;93177.00;;;;7389431;19;20132;-76
2023/04/14 10:40:24;;;;;;;3.08;1.30;;;13.80;1.00;17.30;93234.00;;;;7388955;19;20132;-75
2023/04/14 10:42:55;;;;;;;6.35;1.20;;;15.20;1.00;14.70;93179.00;;;;7387606;19;20166;-74
2023/04/14 10:45:29;;;;;;;6.93;1.50;;;15.50;1.00;15.10;93247.00;;;;7387653;19;20144;-76
2023/04/14 10:47:57;;;;;;;4.50;1.77;;;15.80;1.00;14.40;93248.00;;;;7389181;19;20140;-74
2023/04/14 10:50:47;;;;;;;3.53;1.63;;;15.30;1.00;14.60;93217.00;;;;7386848;19;20132;-75
2023/04/14 10:53:25;;;;;;;6.00;2.00;;;14.40;1.00;14.80;93235.00;;;;7388410;19;20125;-75
2023/04/14 10:56:03;;;;;;;6.07;1.50;;;14.60;1.00;14.50;93243.00;;;;7387304;19;20157;-74
2023/04/14 10:58:38;;;;;;;3.55;1.50;;;14.00;1.00;12.40;93225.00;;;;7387237;19;20152;-75
2023/04/14 11:01:30;;;;;;;4.43;1.50;;;13.40;1.00;13.90;93190.00;;;;7388346;19;20217;-75
2023/04/14 11:04:22;;;;;;;8.63;1.50;;;14.00;1.00;16.30;93143.00;;;;7387089;19;20151;-74
2023/04/14 11:06:57;;;;;;;4.43;1.55;;;14.80;1.00;17.30;93183.00;;;;7387558;19;20512;-75
2023/04/14 11:09:41;;;;;;;5.20;1.85;;;16.00;1.00;16.60;93225.00;;;;7387442;19;20160;-74
2023/04/14 11:12:26;;;;;;;3.83;1.70;;;16.60;1.00;13.80;93228.00;;;;7388125;19;20488;-73
2023/04/14 11:15:04;;;;;;;4.13;1.45;;;15.70;1.00;13.00;93213.00;;;;7388008;19;20140;-74
2023/04/14 11:17:37;;;;;;;4.53;1.42;;;14.50;1.00;13.20;93227.00;;;;7384522;19;20136;-73
2023/04/14 11:20:16;;;;;;;2.67;1.30;;;13.60;1.00;12.80;93223.00;;;;7387842;19;20157;-73
2023/04/14 11:22:52;;;;;;;6.15;1.50;;;13.00;1.00;12.70;93225.00;;;;7386164;19;20144;-76
2023/04/14 11:25:26;;;;;;;6.05;1.80;;;12.70;1.00;13.10;93132.00;;;;7383365;19;20519;-76
2023/04/14 11:28:03;;;;;;;4.40;1.30;;;13.00;1.00;15.10;93190.00;;;;7386117;19;20172;-74
2023/04/14 11:30:31;;;;;;;5.57;1.52;;;14.30;1.00;17.00;93206.00;;;;7385657;19;21531;-77
2023/04/14 11:33:06;;;;;;;3.15;1.38;;;15.20;1.00;15.90;93216.00;;;;7386072;19;20144;-75
2023/04/14 11:35:34;;;;;;;3.28;1.58;;;15.00;1.00;15.10;93201.00;;;;7385705;19;20476;-74
2023/04/14 11:38:13;;;;;;;6.00;1.67;;;14.50;1.00;14.80;93212.00;;;;7385638;19;20148;-74
2023/04/14 11:40:51;;;;;;;3.05;1.45;;;14.30;1.00;12.50;93168.00;;;;7384908;19;20136;-73
2023/04/14 11:43:21;;;;;;;3.55;1.40;;;14.00;1.00;12.00;93203.00;;;;7387531;19;20125;-74
2023/04/14 11:46:00;;;;;;;4.35;1.50;;;13.50;1.00;11.20;93197.00;;;;7386183;19;20599;-74